sensor_id;sensor_type;location;lat;lon;timestamp;temperature;humidity
72326;DHT22;60278;47.980;18.780;2022-07-29T00:00:07;20.63;67.21
72326;DHT22;60278;47.980;18.780;2022-07-29T00:03:38;20.68;67.28
72326;DHT22;60278;47.980;18.780;2022-07-29T00:07:09;20.81;67.23
72326;DHT22;60278;47.980;18.780;2022-07-29T00:10:41;21.15;66.25
72326;DHT22;60278;47.980;18.780;2022-07-29T00:14:12;21.42;65.72
72326;DHT22;60278;47.980;18.780;2022-07-29T00:17:43;21.33;65.86
72326;DHT22;60278;47.980;18.780;2022-07-29T00:21:14;21.56;65.16
72326;DHT22;60278;47.980;18.780;2022-07-29T00:24:48;21.63;64.95
72326;DHT22;60278;47.980;18.780;2022-07-29T00:28:19;21.81;64.33
72326;DHT22;60278;47.980;18.780;2022-07-29T00:31:50;21.77;64.45
72326;DHT22;60278;47.980;18.780;2022-07-29T00:35:21;21.83;64.13
72326;DHT22;60278;47.980;18.780;2022-07-29T00:39:11;21.71;64.59
72326;DHT22;60278;47.980;18.780;2022-07-29T00:42:47;21.73;64.47
72326;DHT22;60278;47.980;18.780;2022-07-29T00:46:18;21.78;64.23
72326;DHT22;60278;47.980;18.780;2022-07-29T00:49:49;21.56;64.71
72326;DHT22;60278;47.980;18.780;2022-07-29T00:53:21;21.56;64.82
72326;DHT22;60278;47.980;18.780;2022-07-29T00:56:52;21.76;64.49
72326;DHT22;60278;47.980;18.780;2022-07-29T01:00:25;21.66;64.52
72326;DHT22;60278;47.980;18.780;2022-07-29T01:03:57;21.63;64.53
72326;DHT22;60278;47.980;18.780;2022-07-29T01:07:29;21.29;65.98
72326;DHT22;60278;47.980;18.780;2022-07-29T01:11:01;21.10;66.65
72326;DHT22;60278;47.980;18.780;2022-07-29T01:14:33;21.10;66.24
72326;DHT22;60278;47.980;18.780;2022-07-29T01:18:16;21.06;66.75
72326;DHT22;60278;47.980;18.780;2022-07-29T01:21:55;21.08;66.69
72326;DHT22;60278;47.980;18.780;2022-07-29T01:32:50;21.49;64.75
72326;DHT22;60278;47.980;18.780;2022-07-29T01:36:43;21.49;64.89
72326;DHT22;60278;47.980;18.780;2022-07-29T01:40:49;21.56;64.51
72326;DHT22;60278;47.980;18.780;2022-07-29T01:44:31;21.51;64.56
72326;DHT22;60278;47.980;18.780;2022-07-29T01:48:10;21.35;66.07
72326;DHT22;60278;47.980;18.780;2022-07-29T01:51:56;21.18;66.58
72326;DHT22;60278;47.980;18.780;2022-07-29T01:55:30;21.05;66.30
72326;DHT22;60278;47.980;18.780;2022-07-29T01:59:03;21.16;66.33
72326;DHT22;60278;47.980;18.780;2022-07-29T02:02:37;21.38;65.24
72326;DHT22;60278;47.980;18.780;2022-07-29T02:06:11;20.99;67.02
72326;DHT22;60278;47.980;18.780;2022-07-29T02:09:43;21.00;66.71
72326;DHT22;60278;47.980;18.780;2022-07-29T02:13:16;21.09;66.52
72326;DHT22;60278;47.980;18.780;2022-07-29T02:16:52;21.09;66.77
72326;DHT22;60278;47.980;18.780;2022-07-29T02:20:25;21.28;65.58
72326;DHT22;60278;47.980;18.780;2022-07-29T02:23:59;21.18;66.33
72326;DHT22;60278;47.980;18.780;2022-07-29T02:27:33;21.28;65.74
72326;DHT22;60278;47.980;18.780;2022-07-29T02:31:05;21.06;66.23
72326;DHT22;60278;47.980;18.780;2022-07-29T02:34:38;20.78;67.66
72326;DHT22;60278;47.980;18.780;2022-07-29T02:38:13;20.91;67.15
72326;DHT22;60278;47.980;18.780;2022-07-29T02:42:06;21.12;66.67
72326;DHT22;60278;47.980;18.780;2022-07-29T02:45:38;21.02;66.60
72326;DHT22;60278;47.980;18.780;2022-07-29T02:49:34;21.09;66.61
72326;DHT22;60278;47.980;18.780;2022-07-29T02:53:16;21.13;65.99
72326;DHT22;60278;47.980;18.780;2022-07-29T02:56:49;21.05;66.27
72326;DHT22;60278;47.980;18.780;2022-07-29T03:00:31;21.10;66.11
72326;DHT22;60278;47.980;18.780;2022-07-29T03:04:04;21.03;66.47
72326;DHT22;60278;47.980;18.780;2022-07-29T03:07:37;21.09;66.12
72326;DHT22;60278;47.980;18.780;2022-07-29T03:11:10;20.98;66.66
72326;DHT22;60278;47.980;18.780;2022-07-29T03:14:43;21.00;66.39
72326;DHT22;60278;47.980;18.780;2022-07-29T03:18:15;21.13;66.00
72326;DHT22;60278;47.980;18.780;2022-07-29T03:21:46;20.98;66.68
72326;DHT22;60278;47.980;18.780;2022-07-29T03:25:18;21.10;65.95
72326;DHT22;60278;47.980;18.780;2022-07-29T03:28:50;21.03;66.41
72326;DHT22;60278;47.980;18.780;2022-07-29T03:32:21;20.99;66.65
72326;DHT22;60278;47.980;18.780;2022-07-29T03:35:52;21.08;66.39
72326;DHT22;60278;47.980;18.780;2022-07-29T03:39:26;20.89;67.20
72326;DHT22;60278;47.980;18.780;2022-07-29T03:42:59;21.00;66.68
72326;DHT22;60278;47.980;18.780;2022-07-29T03:46:32;20.98;66.69
72326;DHT22;60278;47.980;18.780;2022-07-29T03:50:10;20.85;67.65
72326;DHT22;60278;47.980;18.780;2022-07-29T03:53:43;20.91;67.60
72326;DHT22;60278;47.980;18.780;2022-07-29T03:57:15;21.09;66.58
72326;DHT22;60278;47.980;18.780;2022-07-29T04:00:47;21.50;65.28
72326;DHT22;60278;47.980;18.780;2022-07-29T04:04:19;21.63;64.76
72326;DHT22;60278;47.980;18.780;2022-07-29T04:07:50;21.81;64.29
72326;DHT22;60278;47.980;18.780;2022-07-29T04:11:21;21.64;64.78
72326;DHT22;60278;47.980;18.780;2022-07-29T04:14:52;22.00;63.79
72326;DHT22;60278;47.980;18.780;2022-07-29T04:18:24;21.94;64.06
72326;DHT22;60278;47.980;18.780;2022-07-29T04:21:55;22.35;62.95
72326;DHT22;60278;47.980;18.780;2022-07-29T04:25:26;22.44;62.66
72326;DHT22;60278;47.980;18.780;2022-07-29T04:28:57;22.80;61.62
72326;DHT22;60278;47.980;18.780;2022-07-29T04:32:28;23.03;60.90
72326;DHT22;60278;47.980;18.780;2022-07-29T04:35:59;23.34;59.98
72326;DHT22;60278;47.980;18.780;2022-07-29T04:39:30;23.57;59.47
72326;DHT22;60278;47.980;18.780;2022-07-29T04:43:01;23.30;60.19
72326;DHT22;60278;47.980;18.780;2022-07-29T04:46:33;23.16;60.70
72326;DHT22;60278;47.980;18.780;2022-07-29T04:50:05;23.38;60.56
72326;DHT22;60278;47.980;18.780;2022-07-29T04:53:37;23.47;60.18
72326;DHT22;60278;47.980;18.780;2022-07-29T04:57:08;23.55;60.08
72326;DHT22;60278;47.980;18.780;2022-07-29T05:00:40;23.21;61.11
72326;DHT22;60278;47.980;18.780;2022-07-29T05:04:11;23.17;61.35
72326;DHT22;60278;47.980;18.780;2022-07-29T05:07:42;23.03;61.50
72326;DHT22;60278;47.980;18.780;2022-07-29T05:11:16;22.82;62.08
72326;DHT22;60278;47.980;18.780;2022-07-29T05:14:47;23.06;61.73
72326;DHT22;60278;47.980;18.780;2022-07-29T05:18:18;23.27;61.07
72326;DHT22;60278;47.980;18.780;2022-07-29T05:21:49;23.26;61.43
72326;DHT22;60278;47.980;18.780;2022-07-29T05:25:20;23.36;61.01
72326;DHT22;60278;47.980;18.780;2022-07-29T05:28:52;23.65;60.27
72326;DHT22;60278;47.980;18.780;2022-07-29T05:32:24;23.81;59.61
72326;DHT22;60278;47.980;18.780;2022-07-29T05:35:55;23.96;59.64
72326;DHT22;60278;47.980;18.780;2022-07-29T05:39:26;24.19;58.60
72326;DHT22;60278;47.980;18.780;2022-07-29T05:42:57;24.36;58.39
72326;DHT22;60278;47.980;18.780;2022-07-29T05:46:29;24.47;57.99
72326;DHT22;60278;47.980;18.780;2022-07-29T05:50:00;24.44;57.89
72326;DHT22;60278;47.980;18.780;2022-07-29T05:53:31;24.70;57.18
72326;DHT22;60278;47.980;18.780;2022-07-29T05:57:03;24.77;56.49
72326;DHT22;60278;47.980;18.780;2022-07-29T06:00:34;24.77;56.71
72326;DHT22;60278;47.980;18.780;2022-07-29T06:04:06;24.91;55.98
72326;DHT22;60278;47.980;18.780;2022-07-29T06:07:37;25.05;55.73
72326;DHT22;60278;47.980;18.780;2022-07-29T06:11:08;25.21;56.39
72326;DHT22;60278;47.980;18.780;2022-07-29T06:14:39;25.28;54.90
72326;DHT22;60278;47.980;18.780;2022-07-29T06:18:12;25.46;54.94
72326;DHT22;60278;47.980;18.780;2022-07-29T06:21:44;25.62;54.40
72326;DHT22;60278;47.980;18.780;2022-07-29T06:25:15;25.80;53.54
72326;DHT22;60278;47.980;18.780;2022-07-29T06:28:47;25.92;53.30
72326;DHT22;60278;47.980;18.780;2022-07-29T06:32:18;26.17;52.55
72326;DHT22;60278;47.980;18.780;2022-07-29T06:35:50;26.20;52.22
72326;DHT22;60278;47.980;18.780;2022-07-29T06:39:21;26.34;51.94
72326;DHT22;60278;47.980;18.780;2022-07-29T06:42:52;26.30;51.87
72326;DHT22;60278;47.980;18.780;2022-07-29T06:46:23;26.62;51.46
72326;DHT22;60278;47.980;18.780;2022-07-29T06:49:54;26.72;51.41
72326;DHT22;60278;47.980;18.780;2022-07-29T06:53:26;26.95;50.86
72326;DHT22;60278;47.980;18.780;2022-07-29T06:56:57;26.92;50.26
72326;DHT22;60278;47.980;18.780;2022-07-29T07:00:28;27.17;49.89
72326;DHT22;60278;47.980;18.780;2022-07-29T07:03:59;27.34;49.76
72326;DHT22;60278;47.980;18.780;2022-07-29T07:07:48;27.63;49.45
72326;DHT22;60278;47.980;18.780;2022-07-29T07:11:19;27.70;48.41
72326;DHT22;60278;47.980;18.780;2022-07-29T07:14:50;28.02;47.63
72326;DHT22;60278;47.980;18.780;2022-07-29T07:18:22;28.18;47.86
72326;DHT22;60278;47.980;18.780;2022-07-29T07:21:53;28.89;46.67
72326;DHT22;60278;47.980;18.780;2022-07-29T07:25:24;30.03;44.34
72326;DHT22;60278;47.980;18.780;2022-07-29T07:28:55;30.68;42.52
72326;DHT22;60278;47.980;18.780;2022-07-29T07:32:26;31.69;41.20
72326;DHT22;60278;47.980;18.780;2022-07-29T07:35:57;32.78;39.14
72326;DHT22;60278;47.980;18.780;2022-07-29T07:39:28;31.91;41.12
72326;DHT22;60278;47.980;18.780;2022-07-29T07:42:59;32.71;39.17
72326;DHT22;60278;47.980;18.780;2022-07-29T07:46:30;32.82;38.93
72326;DHT22;60278;47.980;18.780;2022-07-29T07:50:03;33.43;38.80
72326;DHT22;60278;47.980;18.780;2022-07-29T07:53:35;33.15;39.12
72326;DHT22;60278;47.980;18.780;2022-07-29T07:57:06;33.13;38.25
72326;DHT22;60278;47.980;18.780;2022-07-29T08:00:37;33.19;38.08
72326;DHT22;60278;47.980;18.780;2022-07-29T08:04:08;34.26;36.63
72326;DHT22;60278;47.980;18.780;2022-07-29T08:07:40;34.80;35.06
72326;DHT22;60278;47.980;18.780;2022-07-29T08:11:11;33.31;37.72
72326;DHT22;60278;47.980;18.780;2022-07-29T08:14:42;34.35;36.25
72326;DHT22;60278;47.980;18.780;2022-07-29T08:18:13;33.36;37.72
72326;DHT22;60278;47.980;18.780;2022-07-29T08:21:45;33.94;36.59
72326;DHT22;60278;47.980;18.780;2022-07-29T08:25:16;34.17;37.27
72326;DHT22;60278;47.980;18.780;2022-07-29T08:28:51;34.73;35.79
72326;DHT22;60278;47.980;18.780;2022-07-29T08:32:22;33.58;36.70
72326;DHT22;60278;47.980;18.780;2022-07-29T08:35:53;34.08;36.21
72326;DHT22;60278;47.980;18.780;2022-07-29T08:39:24;34.29;35.76
72326;DHT22;60278;47.980;18.780;2022-07-29T08:42:55;36.67;32.53
72326;DHT22;60278;47.980;18.780;2022-07-29T08:46:26;35.74;34.50
72326;DHT22;60278;47.980;18.780;2022-07-29T08:49:58;35.43;33.78
72326;DHT22;60278;47.980;18.780;2022-07-29T08:53:29;35.43;33.98
72326;DHT22;60278;47.980;18.780;2022-07-29T08:57:01;35.43;34.11
72326;DHT22;60278;47.980;18.780;2022-07-29T09:00:33;36.15;32.75
72326;DHT22;60278;47.980;18.780;2022-07-29T09:04:10;34.80;34.18
72326;DHT22;60278;47.980;18.780;2022-07-29T09:07:41;36.49;32.45
72326;DHT22;60278;47.980;18.780;2022-07-29T09:11:14;34.65;34.29
72326;DHT22;60278;47.980;18.780;2022-07-29T09:14:45;36.67;31.54
72326;DHT22;60278;47.980;18.780;2022-07-29T09:18:38;36.21;32.78
72326;DHT22;60278;47.980;18.780;2022-07-29T09:22:09;35.81;32.99
72326;DHT22;60278;47.980;18.780;2022-07-29T09:25:41;35.66;33.05
72326;DHT22;60278;47.980;18.780;2022-07-29T09:29:20;36.09;32.28
72326;DHT22;60278;47.980;18.780;2022-07-29T09:33:01;34.53;32.80
72326;DHT22;60278;47.980;18.780;2022-07-29T09:36:41;34.46;33.34
72326;DHT22;60278;47.980;18.780;2022-07-29T09:40:21;35.99;31.08
72326;DHT22;60278;47.980;18.780;2022-07-29T09:43:59;36.28;31.13
72326;DHT22;60278;47.980;18.780;2022-07-29T09:47:47;37.24;30.16
72326;DHT22;60278;47.980;18.780;2022-07-29T09:51:20;37.03;31.59
72326;DHT22;60278;47.980;18.780;2022-07-29T09:54:51;38.15;29.74
72326;DHT22;60278;47.980;18.780;2022-07-29T09:58:24;36.98;30.52
72326;DHT22;60278;47.980;18.780;2022-07-29T10:01:56;35.99;31.99
72326;DHT22;60278;47.980;18.780;2022-07-29T10:05:27;35.30;31.82
72326;DHT22;60278;47.980;18.780;2022-07-29T10:09:08;36.86;29.66
72326;DHT22;60278;47.980;18.780;2022-07-29T10:13:10;36.84;29.72
72326;DHT22;60278;47.980;18.780;2022-07-29T10:16:41;34.75;33.41
72326;DHT22;60278;47.980;18.780;2022-07-29T10:20:13;34.19;33.56
72326;DHT22;60278;47.980;18.780;2022-07-29T10:23:45;34.75;31.85
72326;DHT22;60278;47.980;18.780;2022-07-29T10:27:16;35.55;30.26
72326;DHT22;60278;47.980;18.780;2022-07-29T10:30:50;34.86;30.31
72326;DHT22;60278;47.980;18.780;2022-07-29T10:42:27;34.05;32.38
72326;DHT22;60278;47.980;18.780;2022-07-29T10:46:00;34.45;31.91
72326;DHT22;60278;47.980;18.780;2022-07-29T10:49:31;33.70;33.10
72326;DHT22;60278;47.980;18.780;2022-07-29T10:53:03;33.22;33.57
72326;DHT22;60278;47.980;18.780;2022-07-29T10:56:34;33.33;34.81
72326;DHT22;60278;47.980;18.780;2022-07-29T11:03:47;34.67;31.15
72326;DHT22;60278;47.980;18.780;2022-07-29T11:07:18;35.95;29.77
72326;DHT22;60278;47.980;18.780;2022-07-29T11:14:59;36.52;28.08
72326;DHT22;60278;47.980;18.780;2022-07-29T11:18:32;36.44;28.93
72326;DHT22;60278;47.980;18.780;2022-07-29T11:22:08;36.35;29.25
72326;DHT22;60278;47.980;18.780;2022-07-29T11:25:39;35.70;29.33
72326;DHT22;60278;47.980;18.780;2022-07-29T11:29:20;36.25;29.26
72326;DHT22;60278;47.980;18.780;2022-07-29T11:32:52;35.38;30.20
72326;DHT22;60278;47.980;18.780;2022-07-29T11:36:24;35.59;29.66
72326;DHT22;60278;47.980;18.780;2022-07-29T11:43:56;34.17;31.91
72326;DHT22;60278;47.980;18.780;2022-07-29T11:47:28;33.39;33.06
72326;DHT22;60278;47.980;18.780;2022-07-29T11:51:00;33.68;33.14
72326;DHT22;60278;47.980;18.780;2022-07-29T11:54:42;34.49;32.69
72326;DHT22;60278;47.980;18.780;2022-07-29T11:58:13;34.09;32.72
72326;DHT22;60278;47.980;18.780;2022-07-29T12:09:08;33.34;33.26
72326;DHT22;60278;47.980;18.780;2022-07-29T12:12:39;32.92;33.08
72326;DHT22;60278;47.980;18.780;2022-07-29T12:16:10;32.37;33.39
72326;DHT22;60278;47.980;18.780;2022-07-29T12:19:42;32.48;33.91
72326;DHT22;60278;47.980;18.780;2022-07-29T12:23:15;32.75;33.65
72326;DHT22;60278;47.980;18.780;2022-07-29T12:30:21;32.58;34.19
72326;DHT22;60278;47.980;18.780;2022-07-29T12:33:52;32.55;34.62
72326;DHT22;60278;47.980;18.780;2022-07-29T12:37:24;32.99;33.74
72326;DHT22;60278;47.980;18.780;2022-07-29T12:40:56;33.06;33.98
72326;DHT22;60278;47.980;18.780;2022-07-29T12:44:43;32.92;34.11
72326;DHT22;60278;47.980;18.780;2022-07-29T12:48:15;32.80;33.82
72326;DHT22;60278;47.980;18.780;2022-07-29T12:51:46;32.85;33.96
72326;DHT22;60278;47.980;18.780;2022-07-29T12:59:18;32.75;33.52
72326;DHT22;60278;47.980;18.780;2022-07-29T13:02:58;32.59;33.93
72326;DHT22;60278;47.980;18.780;2022-07-29T13:06:33;32.37;33.48
72326;DHT22;60278;47.980;18.780;2022-07-29T13:13:51;32.21;34.19
72326;DHT22;60278;47.980;18.780;2022-07-29T13:17:23;32.25;35.04
72326;DHT22;60278;47.980;18.780;2022-07-29T13:20:54;32.37;34.79
72326;DHT22;60278;47.980;18.780;2022-07-29T13:24:25;32.41;35.02
72326;DHT22;60278;47.980;18.780;2022-07-29T13:27:57;32.32;34.10
72326;DHT22;60278;47.980;18.780;2022-07-29T13:31:28;32.21;34.38
72326;DHT22;60278;47.980;18.780;2022-07-29T13:35:03;32.14;35.24
72326;DHT22;60278;47.980;18.780;2022-07-29T13:38:35;31.65;38.79
72326;DHT22;60278;47.980;18.780;2022-07-29T13:42:07;31.25;41.19
72326;DHT22;60278;47.980;18.780;2022-07-29T13:45:39;30.92;42.76
72326;DHT22;60278;47.980;18.780;2022-07-29T13:49:10;30.77;42.66
72326;DHT22;60278;47.980;18.780;2022-07-29T13:52:42;30.63;43.43
72326;DHT22;60278;47.980;18.780;2022-07-29T13:56:13;30.26;44.67
72326;DHT22;60278;47.980;18.780;2022-07-29T13:59:44;30.03;45.22
72326;DHT22;60278;47.980;18.780;2022-07-29T14:03:15;30.23;43.95
72326;DHT22;60278;47.980;18.780;2022-07-29T14:06:46;30.44;43.71
72326;DHT22;60278;47.980;18.780;2022-07-29T14:10:18;30.26;43.72
72326;DHT22;60278;47.980;18.780;2022-07-29T14:13:49;30.61;43.80
72326;DHT22;60278;47.980;18.780;2022-07-29T14:17:20;31.15;42.32
72326;DHT22;60278;47.980;18.780;2022-07-29T14:20:51;31.43;41.61
72326;DHT22;60278;47.980;18.780;2022-07-29T14:24:22;31.54;40.14
72326;DHT22;60278;47.980;18.780;2022-07-29T14:27:53;31.70;39.86
72326;DHT22;60278;47.980;18.780;2022-07-29T14:31:24;31.58;39.97
72326;DHT22;60278;47.980;18.780;2022-07-29T14:34:57;31.84;39.09
72326;DHT22;60278;47.980;18.780;2022-07-29T14:38:28;32.06;37.34
72326;DHT22;60278;47.980;18.780;2022-07-29T14:41:59;31.83;37.53
72326;DHT22;60278;47.980;18.780;2022-07-29T14:45:30;31.66;38.19
72326;DHT22;60278;47.980;18.780;2022-07-29T14:49:02;31.83;37.84
72326;DHT22;60278;47.980;18.780;2022-07-29T14:52:33;31.86;37.46
72326;DHT22;60278;47.980;18.780;2022-07-29T14:56:04;32.13;37.13
72326;DHT22;60278;47.980;18.780;2022-07-29T14:59:35;32.23;36.88
72326;DHT22;60278;47.980;18.780;2022-07-29T15:03:06;32.30;36.37
72326;DHT22;60278;47.980;18.780;2022-07-29T15:06:40;32.21;36.58
72326;DHT22;60278;47.980;18.780;2022-07-29T15:10:11;31.79;37.62
72326;DHT22;60278;47.980;18.780;2022-07-29T15:13:42;31.54;37.04
72326;DHT22;60278;47.980;18.780;2022-07-29T15:17:13;31.50;37.40
72326;DHT22;60278;47.980;18.780;2022-07-29T15:20:44;31.41;37.12
72326;DHT22;60278;47.980;18.780;2022-07-29T15:24:17;31.29;36.93
72326;DHT22;60278;47.980;18.780;2022-07-29T15:27:48;31.26;37.69
72326;DHT22;60278;47.980;18.780;2022-07-29T15:31:19;31.14;39.28
72326;DHT22;60278;47.980;18.780;2022-07-29T15:34:50;31.14;39.37
72326;DHT22;60278;47.980;18.780;2022-07-29T15:38:21;31.12;39.03
72326;DHT22;60278;47.980;18.780;2022-07-29T15:41:52;31.15;39.11
72326;DHT22;60278;47.980;18.780;2022-07-29T15:45:23;31.07;39.67
72326;DHT22;60278;47.980;18.780;2022-07-29T15:48:54;31.02;39.68
72326;DHT22;60278;47.980;18.780;2022-07-29T15:52:26;31.03;39.83
72326;DHT22;60278;47.980;18.780;2022-07-29T15:55:57;30.94;39.69
72326;DHT22;60278;47.980;18.780;2022-07-29T15:59:28;30.84;40.16
72326;DHT22;60278;47.980;18.780;2022-07-29T16:02:59;30.81;40.53
72326;DHT22;60278;47.980;18.780;2022-07-29T16:06:30;30.82;40.89
72326;DHT22;60278;47.980;18.780;2022-07-29T16:10:03;30.77;41.53
72326;DHT22;60278;47.980;18.780;2022-07-29T16:13:34;30.67;41.96
72326;DHT22;60278;47.980;18.780;2022-07-29T16:17:05;30.53;42.68
72326;DHT22;60278;47.980;18.780;2022-07-29T16:20:36;30.44;42.56
72326;DHT22;60278;47.980;18.780;2022-07-29T16:24:07;30.29;43.02
72326;DHT22;60278;47.980;18.780;2022-07-29T16:27:38;30.17;43.55
72326;DHT22;60278;47.980;18.780;2022-07-29T16:31:09;30.09;43.70
72326;DHT22;60278;47.980;18.780;2022-07-29T16:34:40;29.89;43.89
72326;DHT22;60278;47.980;18.780;2022-07-29T16:38:11;29.76;44.35
72326;DHT22;60278;47.980;18.780;2022-07-29T16:41:43;29.54;44.92
72326;DHT22;60278;47.980;18.780;2022-07-29T16:45:17;29.30;45.53
72326;DHT22;60278;47.980;18.780;2022-07-29T16:48:48;29.41;43.66
72326;DHT22;60278;47.980;18.780;2022-07-29T16:52:19;29.32;41.63
72326;DHT22;60278;47.980;18.780;2022-07-29T16:55:50;29.13;41.36
72326;DHT22;60278;47.980;18.780;2022-07-29T16:59:21;29.04;41.64
72326;DHT22;60278;47.980;18.780;2022-07-29T17:02:52;28.56;43.15
72326;DHT22;60278;47.980;18.780;2022-07-29T17:06:23;28.48;43.40
72326;DHT22;60278;47.980;18.780;2022-07-29T17:09:54;28.45;43.11
72326;DHT22;60278;47.980;18.780;2022-07-29T17:13:26;28.41;42.93
72326;DHT22;60278;47.980;18.780;2022-07-29T17:16:59;28.43;43.01
72326;DHT22;60278;47.980;18.780;2022-07-29T17:20:30;28.59;42.61
72326;DHT22;60278;47.980;18.780;2022-07-29T17:24:03;28.57;43.91
72326;DHT22;60278;47.980;18.780;2022-07-29T17:27:34;28.43;45.21
72326;DHT22;60278;47.980;18.780;2022-07-29T17:31:06;28.22;45.81
72326;DHT22;60278;47.980;18.780;2022-07-29T17:34:39;28.11;46.01
72326;DHT22;60278;47.980;18.780;2022-07-29T17:38:10;28.16;45.67
72326;DHT22;60278;47.980;18.780;2022-07-29T17:41:41;28.16;46.07
72326;DHT22;60278;47.980;18.780;2022-07-29T17:45:14;28.04;46.68
72326;DHT22;60278;47.980;18.780;2022-07-29T17:48:45;28.05;46.40
72326;DHT22;60278;47.980;18.780;2022-07-29T17:52:16;27.83;47.16
72326;DHT22;60278;47.980;18.780;2022-07-29T17:55:48;27.80;47.31
72326;DHT22;60278;47.980;18.780;2022-07-29T17:59:19;27.71;48.00
72326;DHT22;60278;47.980;18.780;2022-07-29T18:02:51;27.58;49.58
72326;DHT22;60278;47.980;18.780;2022-07-29T18:06:22;27.46;49.82
72326;DHT22;60278;47.980;18.780;2022-07-29T18:09:53;27.40;49.22
72326;DHT22;60278;47.980;18.780;2022-07-29T18:13:24;27.40;49.12
72326;DHT22;60278;47.980;18.780;2022-07-29T18:16:56;27.37;48.79
72326;DHT22;60278;47.980;18.780;2022-07-29T18:20:27;27.29;49.33
72326;DHT22;60278;47.980;18.780;2022-07-29T18:23:58;27.24;49.76
72326;DHT22;60278;47.980;18.780;2022-07-29T18:27:29;27.22;49.58
72326;DHT22;60278;47.980;18.780;2022-07-29T18:31:00;27.16;49.56
72326;DHT22;60278;47.980;18.780;2022-07-29T18:34:32;26.98;51.43
72326;DHT22;60278;47.980;18.780;2022-07-29T18:38:03;26.86;51.43
72326;DHT22;60278;47.980;18.780;2022-07-29T18:41:35;26.81;51.39
72326;DHT22;60278;47.980;18.780;2022-07-29T18:45:08;26.84;51.46
72326;DHT22;60278;47.980;18.780;2022-07-29T18:48:39;26.79;52.24
72326;DHT22;60278;47.980;18.780;2022-07-29T18:52:10;26.51;54.13
72326;DHT22;60278;47.980;18.780;2022-07-29T18:55:42;26.37;55.21
72326;DHT22;60278;47.980;18.780;2022-07-29T18:59:13;26.30;55.19
72326;DHT22;60278;47.980;18.780;2022-07-29T19:02:46;26.04;56.67
72326;DHT22;60278;47.980;18.780;2022-07-29T19:06:17;25.93;56.83
72326;DHT22;60278;47.980;18.780;2022-07-29T19:09:48;25.83;57.43
72326;DHT22;60278;47.980;18.780;2022-07-29T19:13:19;25.52;59.30
72326;DHT22;60278;47.980;18.780;2022-07-29T19:16:50;25.21;60.68
72326;DHT22;60278;47.980;18.780;2022-07-29T19:20:21;24.99;61.46
72326;DHT22;60278;47.980;18.780;2022-07-29T19:23:53;25.04;60.87
72326;DHT22;60278;47.980;18.780;2022-07-29T19:27:24;24.97;60.98
72326;DHT22;60278;47.980;18.780;2022-07-29T19:30:55;24.84;61.62
72326;DHT22;60278;47.980;18.780;2022-07-29T19:34:26;24.91;60.81
72326;DHT22;60278;47.980;18.780;2022-07-29T19:37:59;25.12;60.07
72326;DHT22;60278;47.980;18.780;2022-07-29T19:41:31;25.26;58.99
72326;DHT22;60278;47.980;18.780;2022-07-29T19:45:03;25.26;59.25
72326;DHT22;60278;47.980;18.780;2022-07-29T19:48:35;25.10;60.37
72326;DHT22;60278;47.980;18.780;2022-07-29T19:52:07;24.94;62.01
72326;DHT22;60278;47.980;18.780;2022-07-29T19:55:38;24.66;64.08
72326;DHT22;60278;47.980;18.780;2022-07-29T19:59:09;24.53;64.95
72326;DHT22;60278;47.980;18.780;2022-07-29T20:02:40;24.57;64.01
72326;DHT22;60278;47.980;18.780;2022-07-29T20:06:12;24.64;63.33
72326;DHT22;60278;47.980;18.780;2022-07-29T20:09:43;24.52;63.88
72326;DHT22;60278;47.980;18.780;2022-07-29T20:13:15;24.41;64.45
72326;DHT22;60278;47.980;18.780;2022-07-29T20:16:47;24.12;66.21
72326;DHT22;60278;47.980;18.780;2022-07-29T20:20:18;24.05;66.76
72326;DHT22;60278;47.980;18.780;2022-07-29T20:23:49;24.16;65.97
72326;DHT22;60278;47.980;18.780;2022-07-29T20:27:20;24.37;63.10
72326;DHT22;60278;47.980;18.780;2022-07-29T20:30:51;24.40;62.90
72326;DHT22;60278;47.980;18.780;2022-07-29T20:34:22;24.32;63.39
72326;DHT22;60278;47.980;18.780;2022-07-29T20:37:53;24.23;64.05
72326;DHT22;60278;47.980;18.780;2022-07-29T20:41:26;24.01;65.28
72326;DHT22;60278;47.980;18.780;2022-07-29T20:44:58;23.98;65.90
72326;DHT22;60278;47.980;18.780;2022-07-29T20:48:29;23.69;67.40
72326;DHT22;60278;47.980;18.780;2022-07-29T20:52:01;23.59;67.59
72326;DHT22;60278;47.980;18.780;2022-07-29T20:55:32;23.67;66.87
72326;DHT22;60278;47.980;18.780;2022-07-29T20:59:04;23.68;66.39
72326;DHT22;60278;47.980;18.780;2022-07-29T21:02:35;23.59;66.75
72326;DHT22;60278;47.980;18.780;2022-07-29T21:06:06;23.65;65.85
72326;DHT22;60278;47.980;18.780;2022-07-29T21:09:38;23.78;65.36
72326;DHT22;60278;47.980;18.780;2022-07-29T21:13:09;23.78;65.18
72326;DHT22;60278;47.980;18.780;2022-07-29T21:16:40;23.71;65.58
72326;DHT22;60278;47.980;18.780;2022-07-29T21:20:17;23.85;63.80
72326;DHT22;60278;47.980;18.780;2022-07-29T21:23:48;23.92;63.20
72326;DHT22;60278;47.980;18.780;2022-07-29T21:27:19;23.98;62.79
72326;DHT22;60278;47.980;18.780;2022-07-29T21:31:13;23.90;63.14
72326;DHT22;60278;47.980;18.780;2022-07-29T21:34:44;23.95;63.15
72326;DHT22;60278;47.980;18.780;2022-07-29T21:38:15;24.04;62.44
72326;DHT22;60278;47.980;18.780;2022-07-29T21:41:48;23.99;62.81
72326;DHT22;60278;47.980;18.780;2022-07-29T21:45:19;23.92;63.19
72326;DHT22;60278;47.980;18.780;2022-07-29T21:48:50;23.99;62.63
72326;DHT22;60278;47.980;18.780;2022-07-29T21:52:21;24.01;62.46
72326;DHT22;60278;47.980;18.780;2022-07-29T21:55:53;23.99;61.83
72326;DHT22;60278;47.980;18.780;2022-07-29T21:59:24;24.06;61.54
72326;DHT22;60278;47.980;18.780;2022-07-29T22:02:55;24.06;60.95
72326;DHT22;60278;47.980;18.780;2022-07-29T22:06:26;24.10;60.52
72326;DHT22;60278;47.980;18.780;2022-07-29T22:09:57;24.09;60.49
72326;DHT22;60278;47.980;18.780;2022-07-29T22:13:28;24.09;60.40
72326;DHT22;60278;47.980;18.780;2022-07-29T22:16:59;24.13;60.39
72326;DHT22;60278;47.980;18.780;2022-07-29T22:20:30;24.12;60.42
72326;DHT22;60278;47.980;18.780;2022-07-29T22:24:02;24.10;60.52
72326;DHT22;60278;47.980;18.780;2022-07-29T22:27:33;24.13;60.49
72326;DHT22;60278;47.980;18.780;2022-07-29T22:31:04;24.13;60.03
72326;DHT22;60278;47.980;18.780;2022-07-29T22:34:35;24.22;59.68
72326;DHT22;60278;47.980;18.780;2022-07-29T22:38:06;24.20;59.76
72326;DHT22;60278;47.980;18.780;2022-07-29T22:41:37;24.13;60.04
72326;DHT22;60278;47.980;18.780;2022-07-29T22:45:09;24.16;60.23